sensor_id;sensor_type;location;lat;lon;timestamp;pressure;altitude;pressure_sealevel;temperature;humidity
28027;BME280;15344;52.342;-1.290;2023-02-14T00:00:17;101734.65;;;9.23;78.74
28027;BME280;15344;52.342;-1.290;2023-02-14T00:02:37;101735.46;;;9.34;77.92
28027;BME280;15344;52.342;-1.290;2023-02-14T00:05:03;101735.67;;;8.75;80.16
28027;BME280;15344;52.342;-1.290;2023-02-14T00:07:30;101734.53;;;8.39;82.13
28027;BME280;15344;52.342;-1.290;2023-02-14T00:09:53;101735.19;;;8.66;83.24
28027;BME280;15344;52.342;-1.290;2023-02-14T00:12:19;101733.64;;;8.51;83.74
28027;BME280;15344;52.342;-1.290;2023-02-14T00:14:44;101736.07;;;8.27;85.03
28027;BME280;15344;52.342;-1.290;2023-02-14T00:17:10;101730.18;;;8.56;83.35
28027;BME280;15344;52.342;-1.290;2023-02-14T00:19:35;101730.80;;;9.24;80.81
28027;BME280;15344;52.342;-1.290;2023-02-14T00:22:01;101729.57;;;8.85;81.12
28027;BME280;15344;52.342;-1.290;2023-02-14T00:24:27;101734.01;;;8.82;80.37
28027;BME280;15344;52.342;-1.290;2023-02-14T00:26:52;101734.33;;;8.78;81.83
28027;BME280;15344;52.342;-1.290;2023-02-14T00:29:20;101734.05;;;8.71;84.29
28027;BME280;15344;52.342;-1.290;2023-02-14T00:31:43;101739.62;;;8.55;84.19
28027;BME280;15344;52.342;-1.290;2023-02-14T00:34:09;101736.88;;;8.91;82.38
28027;BME280;15344;52.342;-1.290;2023-02-14T00:36:35;101734.10;;;8.86;81.53
28027;BME280;15344;52.342;-1.290;2023-02-14T00:39:01;101735.76;;;8.25;84.06
28027;BME280;15344;52.342;-1.290;2023-02-14T00:41:25;101730.25;;;7.99;86.78
28027;BME280;15344;52.342;-1.290;2023-02-14T00:43:52;101728.40;;;8.10;85.21
28027;BME280;15344;52.342;-1.290;2023-02-14T00:46:17;101730.47;;;7.34;87.62
28027;BME280;15344;52.342;-1.290;2023-02-14T00:48:41;101728.64;;;8.62;84.20
28027;BME280;15344;52.342;-1.290;2023-02-14T00:51:07;101729.95;;;8.42;82.32
28027;BME280;15344;52.342;-1.290;2023-02-14T00:53:32;101726.71;;;8.46;82.20
28027;BME280;15344;52.342;-1.290;2023-02-14T00:55:57;101730.57;;;8.77;80.11
28027;BME280;15344;52.342;-1.290;2023-02-14T00:58:23;101730.10;;;9.22;78.42
28027;BME280;15344;52.342;-1.290;2023-02-14T01:00:48;101727.88;;;9.23;77.67
28027;BME280;15344;52.342;-1.290;2023-02-14T01:03:14;101723.06;;;9.04;78.18
28027;BME280;15344;52.342;-1.290;2023-02-14T01:05:39;101722.48;;;8.94;77.93
28027;BME280;15344;52.342;-1.290;2023-02-14T01:08:04;101722.77;;;9.12;76.46
28027;BME280;15344;52.342;-1.290;2023-02-14T01:10:30;101718.56;;;8.71;75.56
28027;BME280;15344;52.342;-1.290;2023-02-14T01:12:54;101711.96;;;8.92;75.42
28027;BME280;15344;52.342;-1.290;2023-02-14T01:15:20;101713.60;;;9.01;75.48
28027;BME280;15344;52.342;-1.290;2023-02-14T01:17:46;101720.26;;;8.65;76.74
28027;BME280;15344;52.342;-1.290;2023-02-14T01:20:11;101721.83;;;8.77;77.10
28027;BME280;15344;52.342;-1.290;2023-02-14T01:22:37;101718.96;;;8.98;77.14
28027;BME280;15344;52.342;-1.290;2023-02-14T01:25:02;101714.11;;;9.06;75.46
28027;BME280;15344;52.342;-1.290;2023-02-14T01:27:28;101722.39;;;8.56;79.17
28027;BME280;15344;52.342;-1.290;2023-02-14T01:29:53;101720.26;;;8.87;78.23
28027;BME280;15344;52.342;-1.290;2023-02-14T01:32:19;101708.01;;;8.56;79.34
28027;BME280;15344;52.342;-1.290;2023-02-14T01:34:45;101714.35;;;8.78;77.31
28027;BME280;15344;52.342;-1.290;2023-02-14T01:37:10;101724.61;;;8.62;78.58
28027;BME280;15344;52.342;-1.290;2023-02-14T01:39:35;101715.80;;;8.49;77.40
28027;BME280;15344;52.342;-1.290;2023-02-14T01:42:01;101715.13;;;8.02;80.76
28027;BME280;15344;52.342;-1.290;2023-02-14T01:46:51;101720.45;;;8.56;78.44
28027;BME280;15344;52.342;-1.290;2023-02-14T01:49:20;101710.87;;;8.06;79.77
28027;BME280;15344;52.342;-1.290;2023-02-14T01:51:45;101715.99;;;8.82;77.73
28027;BME280;15344;52.342;-1.290;2023-02-14T01:54:09;101714.94;;;8.39;78.73
28027;BME280;15344;52.342;-1.290;2023-02-14T01:56:36;101710.91;;;8.52;79.24
28027;BME280;15344;52.342;-1.290;2023-02-14T01:59:00;101714.28;;;8.74;78.10
28027;BME280;15344;52.342;-1.290;2023-02-14T02:01:23;101720.01;;;8.07;80.22
28027;BME280;15344;52.342;-1.290;2023-02-14T02:03:52;101721.92;;;8.36;79.85
28027;BME280;15344;52.342;-1.290;2023-02-14T02:06:16;101725.64;;;8.71;77.74
28027;BME280;15344;52.342;-1.290;2023-02-14T02:08:45;101724.11;;;9.04;76.32
28027;BME280;15344;52.342;-1.290;2023-02-14T02:11:05;101720.37;;;9.08;75.79
28027;BME280;15344;52.342;-1.290;2023-02-14T02:13:31;101719.56;;;8.77;75.79
28027;BME280;15344;52.342;-1.290;2023-02-14T02:16:06;101716.78;;;8.94;75.86
28027;BME280;15344;52.342;-1.290;2023-02-14T02:18:30;101715.86;;;8.56;76.45
28027;BME280;15344;52.342;-1.290;2023-02-14T02:21:01;101711.74;;;8.47;75.07
28027;BME280;15344;52.342;-1.290;2023-02-14T02:25:57;101704.51;;;8.28;76.03
28027;BME280;15344;52.342;-1.290;2023-02-14T02:30:38;101708.43;;;8.66;75.26
28027;BME280;15344;52.342;-1.290;2023-02-14T02:35:30;101706.68;;;8.03;77.97
28027;BME280;15344;52.342;-1.290;2023-02-14T02:37:54;101705.30;;;8.78;74.57
28027;BME280;15344;52.342;-1.290;2023-02-14T02:40:22;101709.93;;;8.66;74.83
28027;BME280;15344;52.342;-1.290;2023-02-14T02:42:43;101708.43;;;8.52;74.04
28027;BME280;15344;52.342;-1.290;2023-02-14T02:45:10;101710.56;;;8.33;74.56
28027;BME280;15344;52.342;-1.290;2023-02-14T02:47:30;101710.12;;;8.54;73.08
28027;BME280;15344;52.342;-1.290;2023-02-14T02:49:57;101705.86;;;8.98;72.17
28027;BME280;15344;52.342;-1.290;2023-02-14T02:52:23;101698.27;;;8.70;72.05
28027;BME280;15344;52.342;-1.290;2023-02-14T02:54:48;101701.54;;;8.64;73.78
28027;BME280;15344;52.342;-1.290;2023-02-14T02:57:17;101702.08;;;8.50;75.16
28027;BME280;15344;52.342;-1.290;2023-02-14T02:59:38;101705.07;;;7.67;77.34
28027;BME280;15344;52.342;-1.290;2023-02-14T03:02:03;101701.09;;;6.85;83.92
28027;BME280;15344;52.342;-1.290;2023-02-14T03:04:26;101701.05;;;7.56;80.71
28027;BME280;15344;52.342;-1.290;2023-02-14T03:06:51;101701.80;;;7.90;79.53
28027;BME280;15344;52.342;-1.290;2023-02-14T03:11:48;101685.74;;;7.97;78.64
28027;BME280;15344;52.342;-1.290;2023-02-14T03:14:15;101689.68;;;7.76;79.80
28027;BME280;15344;52.342;-1.290;2023-02-14T03:16:34;101684.88;;;6.97;84.77
28027;BME280;15344;52.342;-1.290;2023-02-14T03:19:08;101684.32;;;6.86;85.17
28027;BME280;15344;52.342;-1.290;2023-02-14T03:21:27;101688.36;;;6.40;90.53
28027;BME280;15344;52.342;-1.290;2023-02-14T03:23:52;101684.82;;;6.45;91.61
28027;BME280;15344;52.342;-1.290;2023-02-14T03:26:16;101689.76;;;6.52;90.99
28027;BME280;15344;52.342;-1.290;2023-02-14T03:28:43;101689.25;;;5.99;91.76
28027;BME280;15344;52.342;-1.290;2023-02-14T03:31:11;101692.80;;;5.95;93.90
28027;BME280;15344;52.342;-1.290;2023-02-14T03:33:35;101692.04;;;5.71;97.24
28027;BME280;15344;52.342;-1.290;2023-02-14T03:36:00;101693.22;;;4.95;100.00
28027;BME280;15344;52.342;-1.290;2023-02-14T03:38:26;101686.23;;;5.50;100.00
28027;BME280;15344;52.342;-1.290;2023-02-14T03:40:50;101683.91;;;4.78;100.00
28027;BME280;15344;52.342;-1.290;2023-02-14T03:43:16;101689.47;;;4.62;100.00
28027;BME280;15344;52.342;-1.290;2023-02-14T03:45:41;101672.87;;;5.31;100.00
28027;BME280;15344;52.342;-1.290;2023-02-14T03:48:06;101669.60;;;4.69;100.00
28027;BME280;15344;52.342;-1.290;2023-02-14T03:50:30;101669.78;;;5.02;100.00
28027;BME280;15344;52.342;-1.290;2023-02-14T03:52:55;101662.36;;;4.62;100.00
28027;BME280;15344;52.342;-1.290;2023-02-14T03:55:26;101658.92;;;5.20;100.00
28027;BME280;15344;52.342;-1.290;2023-02-14T03:57:50;101664.92;;;5.23;100.00
28027;BME280;15344;52.342;-1.290;2023-02-14T04:00:13;101669.22;;;5.11;100.00
28027;BME280;15344;52.342;-1.290;2023-02-14T04:02:41;101667.77;;;5.67;100.00
28027;BME280;15344;52.342;-1.290;2023-02-14T04:05:06;101667.99;;;5.89;99.98
28027;BME280;15344;52.342;-1.290;2023-02-14T04:07:27;101666.60;;;5.11;100.00
28027;BME280;15344;52.342;-1.290;2023-02-14T04:09:53;101667.61;;;4.90;100.00
28027;BME280;15344;52.342;-1.290;2023-02-14T04:12:19;101665.50;;;4.58;100.00
28027;BME280;15344;52.342;-1.290;2023-02-14T04:14:44;101670.19;;;5.28;100.00
28027;BME280;15344;52.342;-1.290;2023-02-14T04:17:09;101665.47;;;5.93;100.00
28027;BME280;15344;52.342;-1.290;2023-02-14T04:19:35;101664.51;;;5.92;99.49
28027;BME280;15344;52.342;-1.290;2023-02-14T04:22:00;101668.92;;;6.05;100.00
28027;BME280;15344;52.342;-1.290;2023-02-14T04:24:26;101666.01;;;5.77;100.00
28027;BME280;15344;52.342;-1.290;2023-02-14T04:26:50;101663.15;;;5.79;100.00
28027;BME280;15344;52.342;-1.290;2023-02-14T04:29:16;101653.50;;;5.37;100.00
28027;BME280;15344;52.342;-1.290;2023-02-14T04:31:41;101660.34;;;5.87;100.00
28027;BME280;15344;52.342;-1.290;2023-02-14T04:34:07;101665.35;;;5.73;100.00
28027;BME280;15344;52.342;-1.290;2023-02-14T04:36:32;101673.21;;;5.50;100.00
28027;BME280;15344;52.342;-1.290;2023-02-14T04:38:58;101674.64;;;6.01;100.00
28027;BME280;15344;52.342;-1.290;2023-02-14T04:41:23;101678.06;;;5.45;100.00
28027;BME280;15344;52.342;-1.290;2023-02-14T04:43:49;101672.45;;;5.93;100.00
28027;BME280;15344;52.342;-1.290;2023-02-14T04:46:14;101675.64;;;5.66;100.00
28027;BME280;15344;52.342;-1.290;2023-02-14T04:48:40;101671.99;;;6.69;97.97
28027;BME280;15344;52.342;-1.290;2023-02-14T04:51:05;101671.82;;;6.41;98.46
28027;BME280;15344;52.342;-1.290;2023-02-14T04:53:30;101671.12;;;5.83;100.00
28027;BME280;15344;52.342;-1.290;2023-02-14T04:55:55;101667.97;;;6.64;98.79
28027;BME280;15344;52.342;-1.290;2023-02-14T04:58:21;101671.46;;;5.82;100.00
28027;BME280;15344;52.342;-1.290;2023-02-14T05:00:46;101665.25;;;6.14;100.00
28027;BME280;15344;52.342;-1.290;2023-02-14T05:03:11;101668.30;;;6.65;99.03
28027;BME280;15344;52.342;-1.290;2023-02-14T05:05:37;101661.71;;;6.53;98.26
28027;BME280;15344;52.342;-1.290;2023-02-14T05:08:03;101666.41;;;6.24;98.16
28027;BME280;15344;52.342;-1.290;2023-02-14T05:10:28;101667.06;;;5.96;100.00
28027;BME280;15344;52.342;-1.290;2023-02-14T05:12:54;101663.37;;;7.19;96.11
28027;BME280;15344;52.342;-1.290;2023-02-14T05:15:20;101667.64;;;6.40;99.13
28027;BME280;15344;52.342;-1.290;2023-02-14T05:17:45;101668.76;;;6.54;98.43
28027;BME280;15344;52.342;-1.290;2023-02-14T05:20:11;101675.15;;;6.81;97.61
28027;BME280;15344;52.342;-1.290;2023-02-14T05:22:36;101675.47;;;6.62;100.00
28027;BME280;15344;52.342;-1.290;2023-02-14T05:25:01;101664.08;;;6.71;99.27
28027;BME280;15344;52.342;-1.290;2023-02-14T05:27:26;101661.43;;;6.75;98.32
28027;BME280;15344;52.342;-1.290;2023-02-14T05:29:52;101660.06;;;7.59;96.09
28027;BME280;15344;52.342;-1.290;2023-02-14T05:32:18;101659.45;;;6.80;100.00
28027;BME280;15344;52.342;-1.290;2023-02-14T05:34:43;101662.54;;;6.97;98.32
28027;BME280;15344;52.342;-1.290;2023-02-14T05:37:08;101659.94;;;6.70;99.00
28027;BME280;15344;52.342;-1.290;2023-02-14T05:39:34;101656.45;;;6.89;97.88
28027;BME280;15344;52.342;-1.290;2023-02-14T05:41:59;101652.63;;;7.85;93.96
28027;BME280;15344;52.342;-1.290;2023-02-14T05:44:25;101653.71;;;7.78;93.84
28027;BME280;15344;52.342;-1.290;2023-02-14T05:46:50;101652.83;;;7.78;93.93
28027;BME280;15344;52.342;-1.290;2023-02-14T05:49:16;101659.19;;;7.28;95.50
28027;BME280;15344;52.342;-1.290;2023-02-14T05:51:41;101662.60;;;7.98;92.71
28027;BME280;15344;52.342;-1.290;2023-02-14T05:54:07;101659.11;;;7.25;96.92
28027;BME280;15344;52.342;-1.290;2023-02-14T05:56:32;101651.95;;;6.50;100.00
28027;BME280;15344;52.342;-1.290;2023-02-14T05:58:57;101658.47;;;6.19;100.00
28027;BME280;15344;52.342;-1.290;2023-02-14T06:01:23;101662.26;;;5.33;100.00
28027;BME280;15344;52.342;-1.290;2023-02-14T06:03:48;101670.51;;;5.42;100.00
28027;BME280;15344;52.342;-1.290;2023-02-14T06:06:14;101668.15;;;5.96;100.00
28027;BME280;15344;52.342;-1.290;2023-02-14T06:08:39;101665.66;;;5.52;100.00
28027;BME280;15344;52.342;-1.290;2023-02-14T06:11:04;101663.37;;;5.82;100.00
28027;BME280;15344;52.342;-1.290;2023-02-14T06:13:29;101671.67;;;5.52;100.00
28027;BME280;15344;52.342;-1.290;2023-02-14T06:15:54;101673.77;;;5.75;100.00
28027;BME280;15344;52.342;-1.290;2023-02-14T06:18:20;101670.85;;;5.74;100.00
28027;BME280;15344;52.342;-1.290;2023-02-14T06:20:45;101673.21;;;5.61;100.00
28027;BME280;15344;52.342;-1.290;2023-02-14T06:23:11;101672.01;;;5.53;100.00
28027;BME280;15344;52.342;-1.290;2023-02-14T06:25:36;101675.97;;;6.51;100.00
28027;BME280;15344;52.342;-1.290;2023-02-14T06:28:01;101675.45;;;6.43;100.00
28027;BME280;15344;52.342;-1.290;2023-02-14T06:30:27;101674.99;;;6.24;100.00
28027;BME280;15344;52.342;-1.290;2023-02-14T06:32:52;101677.40;;;6.33;100.00
28027;BME280;15344;52.342;-1.290;2023-02-14T06:35:17;101674.59;;;7.13;100.00
28027;BME280;15344;52.342;-1.290;2023-02-14T06:37:43;101673.75;;;6.62;100.00
28027;BME280;15344;52.342;-1.290;2023-02-14T06:40:10;101676.99;;;6.47;100.00
28027;BME280;15344;52.342;-1.290;2023-02-14T06:42:34;101681.43;;;7.04;100.00
28027;BME280;15344;52.342;-1.290;2023-02-14T06:45:00;101675.27;;;7.06;100.00
28027;BME280;15344;52.342;-1.290;2023-02-14T06:47:26;101682.52;;;6.14;100.00
28027;BME280;15344;52.342;-1.290;2023-02-14T06:49:50;101682.17;;;6.72;100.00
28027;BME280;15344;52.342;-1.290;2023-02-14T06:52:16;101680.80;;;6.93;100.00
28027;BME280;15344;52.342;-1.290;2023-02-14T06:54:42;101687.03;;;6.41;100.00
28027;BME280;15344;52.342;-1.290;2023-02-14T06:57:07;101689.16;;;6.49;100.00
28027;BME280;15344;52.342;-1.290;2023-02-14T06:59:32;101685.24;;;7.32;100.00
28027;BME280;15344;52.342;-1.290;2023-02-14T07:01:57;101687.84;;;7.01;100.00
28027;BME280;15344;52.342;-1.290;2023-02-14T07:04:23;101690.38;;;6.49;100.00
28027;BME280;15344;52.342;-1.290;2023-02-14T07:06:48;101682.71;;;6.86;100.00
28027;BME280;15344;52.342;-1.290;2023-02-14T07:09:14;101682.64;;;7.56;100.00
28027;BME280;15344;52.342;-1.290;2023-02-14T07:11:39;101679.63;;;8.12;100.00
28027;BME280;15344;52.342;-1.290;2023-02-14T07:14:04;101678.22;;;7.20;100.00
28027;BME280;15344;52.342;-1.290;2023-02-14T07:16:30;101681.67;;;8.13;100.00
28027;BME280;15344;52.342;-1.290;2023-02-14T07:18:54;101679.65;;;8.12;99.39
28027;BME280;15344;52.342;-1.290;2023-02-14T07:21:20;101682.43;;;8.09;97.54
28027;BME280;15344;52.342;-1.290;2023-02-14T07:23:45;101680.56;;;8.08;98.52
28027;BME280;15344;52.342;-1.290;2023-02-14T07:26:11;101689.10;;;7.71;100.00
28027;BME280;15344;52.342;-1.290;2023-02-14T07:28:36;101689.65;;;7.62;100.00
28027;BME280;15344;52.342;-1.290;2023-02-14T07:31:02;101694.88;;;7.80;100.00
28027;BME280;15344;52.342;-1.290;2023-02-14T07:33:27;101694.40;;;7.67;100.00
28027;BME280;15344;52.342;-1.290;2023-02-14T07:35:52;101697.95;;;7.51;100.00
28027;BME280;15344;52.342;-1.290;2023-02-14T07:38:18;101696.12;;;6.98;100.00
28027;BME280;15344;52.342;-1.290;2023-02-14T07:40:43;101703.94;;;7.52;100.00
28027;BME280;15344;52.342;-1.290;2023-02-14T07:43:08;101698.94;;;8.24;100.00
28027;BME280;15344;52.342;-1.290;2023-02-14T07:45:33;101695.36;;;8.05;100.00
28027;BME280;15344;52.342;-1.290;2023-02-14T07:47:58;101697.26;;;7.46;100.00
28027;BME280;15344;52.342;-1.290;2023-02-14T07:50:24;101699.60;;;7.75;100.00
28027;BME280;15344;52.342;-1.290;2023-02-14T07:52:50;101700.28;;;7.35;100.00
28027;BME280;15344;52.342;-1.290;2023-02-14T07:55:15;101701.15;;;7.50;100.00
28027;BME280;15344;52.342;-1.290;2023-02-14T07:57:40;101699.72;;;7.39;100.00
28027;BME280;15344;52.342;-1.290;2023-02-14T08:00:07;101704.74;;;7.89;100.00
28027;BME280;15344;52.342;-1.290;2023-02-14T08:02:30;101706.57;;;7.93;100.00
28027;BME280;15344;52.342;-1.290;2023-02-14T08:04:56;101701.95;;;7.75;100.00
28027;BME280;15344;52.342;-1.290;2023-02-14T08:07:22;101698.45;;;7.96;100.00
28027;BME280;15344;52.342;-1.290;2023-02-14T08:09:47;101697.18;;;8.56;100.00
28027;BME280;15344;52.342;-1.290;2023-02-14T08:12:12;101704.96;;;8.07;100.00
28027;BME280;15344;52.342;-1.290;2023-02-14T08:14:38;101709.03;;;7.27;100.00
28027;BME280;15344;52.342;-1.290;2023-02-14T08:17:04;101713.76;;;7.58;100.00
28027;BME280;15344;52.342;-1.290;2023-02-14T08:19:29;101708.49;;;7.69;100.00
28027;BME280;15344;52.342;-1.290;2023-02-14T08:21:55;101720.31;;;8.08;100.00
28027;BME280;15344;52.342;-1.290;2023-02-14T08:24:20;101730.58;;;8.61;100.00
28027;BME280;15344;52.342;-1.290;2023-02-14T08:26:45;101728.79;;;8.79;100.00
28027;BME280;15344;52.342;-1.290;2023-02-14T08:29:11;101732.46;;;9.24;99.20
28027;BME280;15344;52.342;-1.290;2023-02-14T08:31:36;101729.37;;;9.12;98.65
28027;BME280;15344;52.342;-1.290;2023-02-14T08:34:02;101731.43;;;9.12;99.37
28027;BME280;15344;52.342;-1.290;2023-02-14T08:36:27;101727.47;;;8.64;100.00
28027;BME280;15344;52.342;-1.290;2023-02-14T08:38:53;101723.56;;;8.61;100.00
28027;BME280;15344;52.342;-1.290;2023-02-14T08:41:18;101718.58;;;8.62;100.00
28027;BME280;15344;52.342;-1.290;2023-02-14T08:43:44;101720.40;;;9.05;100.00
28027;BME280;15344;52.342;-1.290;2023-02-14T08:46:09;101718.34;;;9.16;100.00
28027;BME280;15344;52.342;-1.290;2023-02-14T08:48:35;101722.61;;;8.99;100.00
28027;BME280;15344;52.342;-1.290;2023-02-14T08:51:04;101725.74;;;8.66;100.00
28027;BME280;15344;52.342;-1.290;2023-02-14T08:53:25;101726.94;;;8.37;100.00
28027;BME280;15344;52.342;-1.290;2023-02-14T08:55:51;101722.97;;;8.66;100.00
28027;BME280;15344;52.342;-1.290;2023-02-14T08:58:16;101720.17;;;9.01;100.00
28027;BME280;15344;52.342;-1.290;2023-02-14T09:00:42;101727.38;;;8.82;100.00
28027;BME280;15344;52.342;-1.290;2023-02-14T09:03:08;101725.93;;;8.75;100.00
28027;BME280;15344;52.342;-1.290;2023-02-14T09:05:33;101724.93;;;8.85;100.00
28027;BME280;15344;52.342;-1.290;2023-02-14T09:07:58;101724.78;;;8.30;100.00
28027;BME280;15344;52.342;-1.290;2023-02-14T09:10:24;101725.25;;;9.10;100.00
28027;BME280;15344;52.342;-1.290;2023-02-14T09:12:50;101723.41;;;9.06;100.00
28027;BME280;15344;52.342;-1.290;2023-02-14T09:15:14;101722.96;;;9.25;100.00
28027;BME280;15344;52.342;-1.290;2023-02-14T09:17:40;101722.42;;;8.36;100.00
28027;BME280;15344;52.342;-1.290;2023-02-14T09:20:08;101713.90;;;9.21;100.00
28027;BME280;15344;52.342;-1.290;2023-02-14T09:22:31;101708.85;;;9.54;100.00
28027;BME280;15344;52.342;-1.290;2023-02-14T09:24:56;101706.22;;;8.79;100.00
28027;BME280;15344;52.342;-1.290;2023-02-14T09:27:22;101708.73;;;9.66;100.00
28027;BME280;15344;52.342;-1.290;2023-02-14T09:29:47;101705.96;;;9.98;100.00
28027;BME280;15344;52.342;-1.290;2023-02-14T09:32:14;101705.04;;;9.53;100.00
28027;BME280;15344;52.342;-1.290;2023-02-14T09:34:38;101702.66;;;9.03;100.00
28027;BME280;15344;52.342;-1.290;2023-02-14T09:37:03;101703.78;;;9.36;100.00
28027;BME280;15344;52.342;-1.290;2023-02-14T09:39:29;101706.47;;;9.27;100.00
28027;BME280;15344;52.342;-1.290;2023-02-14T09:44:25;101712.65;;;9.72;100.00
28027;BME280;15344;52.342;-1.290;2023-02-14T09:46:51;101705.30;;;9.08;100.00
28027;BME280;15344;52.342;-1.290;2023-02-14T09:49:13;101705.28;;;9.35;100.00
28027;BME280;15344;52.342;-1.290;2023-02-14T09:51:38;101714.41;;;10.13;100.00
28027;BME280;15344;52.342;-1.290;2023-02-14T09:54:08;101716.70;;;9.01;100.00
28027;BME280;15344;52.342;-1.290;2023-02-14T09:56:31;101714.19;;;9.15;100.00
28027;BME280;15344;52.342;-1.290;2023-02-14T09:58:59;101716.05;;;8.86;100.00
28027;BME280;15344;52.342;-1.290;2023-02-14T10:01:24;101716.69;;;8.56;100.00
28027;BME280;15344;52.342;-1.290;2023-02-14T10:04:00;101719.56;;;8.99;100.00
28027;BME280;15344;52.342;-1.290;2023-02-14T10:06:22;101719.63;;;8.82;100.00
28027;BME280;15344;52.342;-1.290;2023-02-14T10:08:46;101714.91;;;8.89;100.00
28027;BME280;15344;52.342;-1.290;2023-02-14T10:11:04;101713.76;;;9.43;100.00
28027;BME280;15344;52.342;-1.290;2023-02-14T10:13:32;101716.13;;;9.46;100.00
28027;BME280;15344;52.342;-1.290;2023-02-14T10:15:57;101715.86;;;9.40;100.00
28027;BME280;15344;52.342;-1.290;2023-02-14T10:18:20;101710.88;;;9.14;100.00
28027;BME280;15344;52.342;-1.290;2023-02-14T10:20:45;101716.37;;;9.13;100.00
28027;BME280;15344;52.342;-1.290;2023-02-14T10:23:21;101716.48;;;9.07;100.00
28027;BME280;15344;52.342;-1.290;2023-02-14T10:25:39;101719.64;;;9.00;100.00
28027;BME280;15344;52.342;-1.290;2023-02-14T10:28:00;101725.74;;;8.96;100.00
28027;BME280;15344;52.342;-1.290;2023-02-14T10:30:26;101723.47;;;9.54;100.00
28027;BME280;15344;52.342;-1.290;2023-02-14T10:32:58;101728.55;;;9.61;100.00
28027;BME280;15344;52.342;-1.290;2023-02-14T10:35:26;101734.71;;;10.11;100.00
28027;BME280;15344;52.342;-1.290;2023-02-14T10:37:50;101737.24;;;10.27;100.00
28027;BME280;15344;52.342;-1.290;2023-02-14T10:42:40;101726.09;;;10.38;100.00
28027;BME280;15344;52.342;-1.290;2023-02-14T10:45:08;101724.72;;;10.24;100.00
28027;BME280;15344;52.342;-1.290;2023-02-14T10:47:35;101720.22;;;10.56;100.00
28027;BME280;15344;52.342;-1.290;2023-02-14T10:49:55;101719.88;;;9.40;100.00
28027;BME280;15344;52.342;-1.290;2023-02-14T10:52:19;101715.33;;;10.78;100.00
28027;BME280;15344;52.342;-1.290;2023-02-14T10:54:44;101721.87;;;10.65;100.00
28027;BME280;15344;52.342;-1.290;2023-02-14T10:57:10;101724.60;;;10.29;100.00
28027;BME280;15344;52.342;-1.290;2023-02-14T10:59:44;101721.53;;;10.48;100.00
28027;BME280;15344;52.342;-1.290;2023-02-14T11:01:57;101715.67;;;10.60;100.00
28027;BME280;15344;52.342;-1.290;2023-02-14T11:04:22;101703.57;;;10.43;100.00
28027;BME280;15344;52.342;-1.290;2023-02-14T11:06:46;101702.97;;;10.34;100.00
28027;BME280;15344;52.342;-1.290;2023-02-14T11:09:12;101699.59;;;10.79;100.00
28027;BME280;15344;52.342;-1.290;2023-02-14T11:11:39;101704.72;;;10.57;100.00
28027;BME280;15344;52.342;-1.290;2023-02-14T11:16:31;101695.49;;;11.21;100.00
28027;BME280;15344;52.342;-1.290;2023-02-14T11:21:20;101686.72;;;11.57;100.00
28027;BME280;15344;52.342;-1.290;2023-02-14T11:23:48;101676.56;;;11.44;98.20
28027;BME280;15344;52.342;-1.290;2023-02-14T11:26:19;101675.93;;;11.41;100.00
28027;BME280;15344;52.342;-1.290;2023-02-14T11:28:48;101672.05;;;11.63;99.56
28027;BME280;15344;52.342;-1.290;2023-02-14T11:31:02;101672.75;;;11.35;98.49
28027;BME280;15344;52.342;-1.290;2023-02-14T11:33:33;101671.14;;;11.84;95.78
28027;BME280;15344;52.342;-1.290;2023-02-14T11:35:53;101668.43;;;12.09;98.63
28027;BME280;15344;52.342;-1.290;2023-02-14T11:38:26;101666.64;;;12.17;97.94
28027;BME280;15344;52.342;-1.290;2023-02-14T11:40:44;101665.60;;;11.47;99.98
28027;BME280;15344;52.342;-1.290;2023-02-14T11:43:18;101671.77;;;11.62;100.00
28027;BME280;15344;52.342;-1.290;2023-02-14T11:45:37;101665.07;;;11.10;100.00
28027;BME280;15344;52.342;-1.290;2023-02-14T11:48:07;101668.57;;;11.10;100.00
28027;BME280;15344;52.342;-1.290;2023-02-14T11:50:25;101672.99;;;10.89;100.00
28027;BME280;15344;52.342;-1.290;2023-02-14T11:52:52;101664.17;;;11.19;99.17
28027;BME280;15344;52.342;-1.290;2023-02-14T11:55:21;101660.55;;;11.41;99.95
28027;BME280;15344;52.342;-1.290;2023-02-14T11:57:41;101660.56;;;11.58;99.69
28027;BME280;15344;52.342;-1.290;2023-02-14T12:00:13;101667.25;;;11.63;100.00
28027;BME280;15344;52.342;-1.290;2023-02-14T12:02:37;101661.63;;;10.60;100.00
28027;BME280;15344;52.342;-1.290;2023-02-14T12:04:59;101654.46;;;10.81;100.00
28027;BME280;15344;52.342;-1.290;2023-02-14T12:07:26;101647.49;;;11.49;100.00
28027;BME280;15344;52.342;-1.290;2023-02-14T12:12:17;101647.20;;;11.74;100.00
28027;BME280;15344;52.342;-1.290;2023-02-14T12:14:39;101642.18;;;11.37;100.00
28027;BME280;15344;52.342;-1.290;2023-02-14T12:17:13;101638.03;;;11.71;100.00
28027;BME280;15344;52.342;-1.290;2023-02-14T12:19:37;101632.40;;;11.82;99.93
28027;BME280;15344;52.342;-1.290;2023-02-14T12:21:58;101642.72;;;11.57;98.73
28027;BME280;15344;52.342;-1.290;2023-02-14T12:24:27;101641.65;;;11.21;100.00
28027;BME280;15344;52.342;-1.290;2023-02-14T12:26:49;101631.48;;;12.38;98.97
28027;BME280;15344;52.342;-1.290;2023-02-14T12:29:18;101631.44;;;12.27;97.46
28027;BME280;15344;52.342;-1.290;2023-02-14T12:31:37;101631.23;;;12.29;96.45
28027;BME280;15344;52.342;-1.290;2023-02-14T12:34:04;101633.01;;;11.53;97.82
28027;BME280;15344;52.342;-1.290;2023-02-14T12:36:42;101636.28;;;11.69;100.00
28027;BME280;15344;52.342;-1.290;2023-02-14T12:39:01;101636.23;;;12.37;97.65
28027;BME280;15344;52.342;-1.290;2023-02-14T12:41:28;101630.75;;;12.30;94.04
28027;BME280;15344;52.342;-1.290;2023-02-14T12:43:47;101628.46;;;11.50;97.65
28027;BME280;15344;52.342;-1.290;2023-02-14T12:48:47;101620.01;;;12.24;95.95
28027;BME280;15344;52.342;-1.290;2023-02-14T12:51:03;101617.62;;;10.82;99.73
28027;BME280;15344;52.342;-1.290;2023-02-14T12:53:36;101609.05;;;12.41;94.25
28027;BME280;15344;52.342;-1.290;2023-02-14T12:55:58;101603.73;;;13.17;92.47
28027;BME280;15344;52.342;-1.290;2023-02-14T12:58:24;101597.29;;;12.23;95.39